createdAt,value
2023-01-23T00:01:31.724Z,1.04
2023-01-23T00:03:59.165Z,0.89
2023-01-23T00:06:27.108Z,1.03
2023-01-23T00:08:56.677Z,0.75
2023-01-23T00:11:28.485Z,0.96
2023-01-23T00:13:57.779Z,0.92
2023-01-23T00:16:27.393Z,0.87
2023-01-23T00:18:54.839Z,0.83
2023-01-23T00:21:25.841Z,0.82
2023-01-23T00:23:56.003Z,0.82
2023-01-23T00:26:28.823Z,0.71
2023-01-23T00:28:56.913Z,0.80
2023-01-23T00:31:33.216Z,0.86
2023-01-23T00:34:04.858Z,0.75
2023-01-23T00:36:36.224Z,0.79
2023-01-23T00:39:07.179Z,0.70
2023-01-23T00:41:34.513Z,0.68
2023-01-23T00:44:01.703Z,0.62
2023-01-23T00:46:29.874Z,0.89
2023-01-23T00:48:56.844Z,0.74
2023-01-23T00:51:24.381Z,0.79
2023-01-23T00:53:52.439Z,0.85
2023-01-23T00:56:19.617Z,0.71
2023-01-23T00:58:46.535Z,0.71
2023-01-23T01:01:15.560Z,0.79
2023-01-23T01:03:44.232Z,0.85
2023-01-23T01:06:11.839Z,0.78
2023-01-23T01:08:39.440Z,0.74
2023-01-23T01:11:07.097Z,0.80
2023-01-23T01:13:34.736Z,0.78
2023-01-23T01:16:02.188Z,0.86
2023-01-23T01:18:30.010Z,0.82
2023-01-23T01:20:57.840Z,0.75
2023-01-23T01:23:25.482Z,0.69
2023-01-23T01:25:52.798Z,0.77
2023-01-23T01:28:19.777Z,0.82
2023-01-23T01:30:46.666Z,0.78
2023-01-23T01:33:13.666Z,0.78
2023-01-23T01:35:41.506Z,0.98
2023-01-23T01:38:09.317Z,0.91
2023-01-23T01:40:37.681Z,0.92
2023-01-23T01:43:18.989Z,0.84
2023-01-23T01:46:14.823Z,0.94
2023-01-23T01:49:01.000Z,0.88
2023-01-23T01:51:50.468Z,0.97
2023-01-23T01:54:25.332Z,0.89
2023-01-23T01:57:12.633Z,0.76
2023-01-23T02:00:07.602Z,0.82
2023-01-23T02:03:01.351Z,0.75
2023-01-23T02:05:59.502Z,0.73
2023-01-23T02:08:48.289Z,0.81
2023-01-23T02:11:17.008Z,0.70
2023-01-23T02:13:45.928Z,0.88
2023-01-23T02:16:21.981Z,0.79
2023-01-23T02:18:53.999Z,0.87
2023-01-23T02:21:25.372Z,0.73
2023-01-23T02:24:12.855Z,0.77
2023-01-23T02:26:45.854Z,0.74
2023-01-23T02:29:14.194Z,0.75
2023-01-23T02:31:43.114Z,0.84
2023-01-23T02:34:13.310Z,0.84
2023-01-23T02:36:44.108Z,0.90
2023-01-23T02:39:17.776Z,0.89
2023-01-23T02:41:49.353Z,0.82
2023-01-23T02:44:27.947Z,0.88
2023-01-23T02:46:57.015Z,0.69
2023-01-23T02:49:24.286Z,0.69
2023-01-23T02:51:54.141Z,0.72
2023-01-23T02:54:23.669Z,0.63
2023-01-23T02:56:51.287Z,0.65
2023-01-23T02:59:36.461Z,0.70
2023-01-23T03:02:04.440Z,0.76
2023-01-23T03:04:31.477Z,0.73
2023-01-23T03:06:59.313Z,0.68
2023-01-23T03:09:27.120Z,0.74
2023-01-23T03:11:54.159Z,0.64
2023-01-23T03:14:24.603Z,0.78
2023-01-23T03:16:53.777Z,0.70
2023-01-23T03:19:27.088Z,0.69
2023-01-23T03:21:54.832Z,0.83
2023-01-23T03:24:22.354Z,0.88
2023-01-23T03:26:51.579Z,0.77
2023-01-23T03:29:41.536Z,0.84
2023-01-23T03:32:09.415Z,0.78
2023-01-23T03:34:36.634Z,0.73
2023-01-23T03:37:03.966Z,0.87
2023-01-23T03:39:49.891Z,0.95
2023-01-23T03:42:17.276Z,0.82
2023-01-23T03:44:44.257Z,0.77
2023-01-23T03:47:11.154Z,0.75
2023-01-23T03:49:38.163Z,0.72
2023-01-23T03:52:05.309Z,0.71
2023-01-23T03:54:32.505Z,0.70
2023-01-23T03:56:59.462Z,0.73
2023-01-23T03:59:26.378Z,0.71
2023-01-23T04:01:53.374Z,0.69
2023-01-23T04:04:20.259Z,0.69
2023-01-23T04:06:47.219Z,0.74
2023-01-23T04:09:14.221Z,0.66
2023-01-23T04:11:41.140Z,0.78
2023-01-23T04:14:08.909Z,0.69
2023-01-23T04:16:35.882Z,0.82
2023-01-23T04:19:02.904Z,0.76
2023-01-23T04:21:29.867Z,0.84
2023-01-23T04:23:56.801Z,0.83
2023-01-23T04:26:23.780Z,0.85
2023-01-23T04:28:50.687Z,0.77
2023-01-23T04:31:17.709Z,0.77
2023-01-23T04:33:44.813Z,0.92
2023-01-23T04:36:12.052Z,0.91
2023-01-23T04:38:38.953Z,0.86
2023-01-23T04:41:05.995Z,0.82
2023-01-23T04:43:33.021Z,0.89
2023-01-23T04:46:00.015Z,0.89
2023-01-23T04:48:26.981Z,0.87
2023-01-23T04:50:53.967Z,0.82
2023-01-23T04:53:21.024Z,0.78
2023-01-23T04:55:49.472Z,0.80
2023-01-23T04:58:18.366Z,0.81
2023-01-23T05:00:46.201Z,0.91
2023-01-23T05:03:14.575Z,0.78
2023-01-23T05:05:42.825Z,0.74
2023-01-23T05:08:13.523Z,0.79
2023-01-23T05:10:40.492Z,0.78
2023-01-23T05:13:09.592Z,0.89
2023-01-23T05:15:36.531Z,0.83
2023-01-23T05:18:03.992Z,0.76
2023-01-23T05:20:30.867Z,0.85
2023-01-23T05:22:58.659Z,0.95
2023-01-23T05:25:28.264Z,0.85
2023-01-23T05:27:55.707Z,0.94
2023-01-23T05:30:23.634Z,0.91
2023-01-23T05:32:51.077Z,0.87
2023-01-23T05:35:18.269Z,0.91
2023-01-23T05:37:50.619Z,1.01
2023-01-23T05:40:18.348Z,0.88
2023-01-23T05:42:46.611Z,0.95
2023-01-23T05:45:14.542Z,0.87
2023-01-23T05:47:42.096Z,0.99
2023-01-23T05:50:14.283Z,0.94
2023-01-23T05:52:41.510Z,0.95
2023-01-23T05:55:08.655Z,0.97
2023-01-23T05:57:35.888Z,1.08
2023-01-23T06:00:04.938Z,0.97
2023-01-23T06:02:34.850Z,1.10
2023-01-23T06:05:05.638Z,0.98
2023-01-23T06:07:32.801Z,1.08
2023-01-23T06:09:59.676Z,1.10
2023-01-23T06:12:26.787Z,1.04
2023-01-23T06:14:54.080Z,1.02
2023-01-23T06:17:20.982Z,1.10
2023-01-23T06:19:48.919Z,1.10
2023-01-23T06:22:15.874Z,1.06
2023-01-23T06:24:42.905Z,1.05
2023-01-23T06:27:09.859Z,1.06
2023-01-23T06:29:37.167Z,1.10
2023-01-23T06:32:05.428Z,1.04
2023-01-23T06:34:32.477Z,1.02
2023-01-23T06:36:59.387Z,1.03
2023-01-23T06:39:27.032Z,0.81
2023-01-23T06:41:53.998Z,0.92
2023-01-23T06:44:20.892Z,0.83
2023-01-23T06:46:49.078Z,0.80
2023-01-23T06:49:15.989Z,0.73
2023-01-23T06:51:42.915Z,0.68
2023-01-23T06:54:10.040Z,0.63
2023-01-23T06:56:36.938Z,0.68
2023-01-23T06:59:03.822Z,0.61
2023-01-23T07:01:30.867Z,0.46
2023-01-23T07:03:58.763Z,0.32
2023-01-23T07:06:26.648Z,0.41
2023-01-23T07:08:53.613Z,0.42
2023-01-23T07:11:20.580Z,0.35
2023-01-23T07:13:47.511Z,0.32
2023-01-23T07:16:14.479Z,0.34
2023-01-23T07:18:41.405Z,0.40
2023-01-23T07:21:08.772Z,0.47
2023-01-23T07:23:35.837Z,0.52
2023-01-23T07:26:09.452Z,0.59
2023-01-23T07:28:37.663Z,0.49
2023-01-23T07:31:05.777Z,0.61
2023-01-23T07:33:32.868Z,0.67
2023-01-23T07:35:59.912Z,0.58
2023-01-23T07:38:32.439Z,0.57
2023-01-23T07:40:59.962Z,0.46
2023-01-23T07:43:27.644Z,0.44
2023-01-23T07:45:54.604Z,0.37
2023-01-23T07:48:24.758Z,0.32
2023-01-23T07:50:51.789Z,0.45
2023-01-23T07:53:18.766Z,0.32
2023-01-23T07:55:45.734Z,0.45
2023-01-23T07:58:12.729Z,0.42
2023-01-23T08:00:41.831Z,0.45
2023-01-23T08:03:09.005Z,0.45
2023-01-23T08:05:35.917Z,0.48
2023-01-23T08:08:13.094Z,0.58
2023-01-23T08:10:41.672Z,0.61
2023-01-23T08:13:08.584Z,0.63
2023-01-23T08:15:38.728Z,0.65
2023-01-23T08:18:05.940Z,0.63
2023-01-23T08:20:33.309Z,0.61
2023-01-23T08:23:02.126Z,0.59
2023-01-23T08:25:29.203Z,0.70
2023-01-23T08:27:56.276Z,0.61
2023-01-23T08:30:23.265Z,0.58
2023-01-23T08:32:50.278Z,0.61
2023-01-23T08:35:17.251Z,0.72
2023-01-23T08:37:44.221Z,0.66
2023-01-23T08:40:11.998Z,0.74
2023-01-23T08:42:38.900Z,0.73
2023-01-23T08:45:06.658Z,0.67
2023-01-23T08:47:36.572Z,0.82
2023-01-23T08:50:05.286Z,0.88
2023-01-23T08:52:33.839Z,0.89
2023-01-23T08:55:00.768Z,0.94
2023-01-23T08:57:27.628Z,0.93
2023-01-23T08:59:54.580Z,0.97
2023-01-23T09:02:22.186Z,0.97
2023-01-23T09:04:50.335Z,1.05
2023-01-23T09:07:17.280Z,1.10
2023-01-23T09:09:44.184Z,1.28
2023-01-23T09:12:11.094Z,1.45
2023-01-23T09:14:38.197Z,1.48
2023-01-23T09:17:06.125Z,1.63
2023-01-23T09:19:33.402Z,1.78
2023-01-23T09:22:00.327Z,1.86
2023-01-23T09:24:27.322Z,1.83
2023-01-23T09:26:54.273Z,1.92
2023-01-23T09:29:21.221Z,1.96
2023-01-23T09:31:48.189Z,1.89
2023-01-23T09:34:17.167Z,1.79
2023-01-23T09:36:44.570Z,1.72
2023-01-23T09:39:12.536Z,1.83
2023-01-23T09:41:40.761Z,1.77
2023-01-23T09:44:34.058Z,1.80
2023-01-23T09:47:53.419Z,1.85
2023-01-23T09:50:52.246Z,1.78
2023-01-23T09:53:25.995Z,1.71
2023-01-23T09:56:35.249Z,1.61
2023-01-23T09:59:50.275Z,1.57
2023-01-23T10:02:27.028Z,1.63
2023-01-23T10:04:56.032Z,1.64
2023-01-23T10:07:43.919Z,1.62
2023-01-23T10:10:31.881Z,1.72
2023-01-23T10:13:15.523Z,1.74
2023-01-23T10:15:43.265Z,1.77
2023-01-23T10:18:35.954Z,1.82
2023-01-23T10:21:23.896Z,1.84
2023-01-23T10:24:38.018Z,1.89
2023-01-23T10:27:24.466Z,2.00
2023-01-23T10:30:11.898Z,2.06
2023-01-23T10:32:58.019Z,1.90
2023-01-23T10:35:50.774Z,1.92
2023-01-23T10:38:27.928Z,1.94
2023-01-23T10:41:13.312Z,2.04
2023-01-23T10:43:51.449Z,2.07
2023-01-23T10:46:31.512Z,2.06
2023-01-23T10:49:02.661Z,2.08
2023-01-23T10:51:48.913Z,2.12
2023-01-23T10:54:31.692Z,2.17
2023-01-23T10:57:17.045Z,2.14
2023-01-23T11:00:04.126Z,2.19
2023-01-23T11:02:37.367Z,2.07
2023-01-23T11:05:52.818Z,2.05
2023-01-23T11:08:37.256Z,2.24
2023-01-23T11:11:16.796Z,2.24
2023-01-23T11:13:46.645Z,2.13
2023-01-23T11:16:23.355Z,2.22
2023-01-23T11:19:08.487Z,2.02
2023-01-23T11:21:58.144Z,2.14
2023-01-23T11:24:38.342Z,2.08
2023-01-23T11:27:20.139Z,2.18
2023-01-23T11:30:08.207Z,2.16
2023-01-23T11:33:33.775Z,2.16
2023-01-23T11:36:18.822Z,2.28
2023-01-23T11:38:52.848Z,2.26
2023-01-23T11:41:32.220Z,2.14
2023-01-23T11:44:07.334Z,2.18
2023-01-23T11:46:43.627Z,2.21
2023-01-23T11:49:45.607Z,2.26
2023-01-23T11:53:09.397Z,2.28
2023-01-23T11:56:08.389Z,2.41
2023-01-23T11:58:59.930Z,2.44
2023-01-23T12:02:02.557Z,2.42
2023-01-23T12:05:25.992Z,2.54
2023-01-23T12:08:19.662Z,2.50
2023-01-23T12:11:13.884Z,2.66
2023-01-23T12:14:12.218Z,2.73
2023-01-23T12:17:18.439Z,3.23
2023-01-23T12:20:07.225Z,3.25
2023-01-23T12:23:18.458Z,3.38
2023-01-23T12:26:15.790Z,3.41
2023-01-23T12:29:01.037Z,3.34
2023-01-23T12:31:41.401Z,3.16
2023-01-23T12:34:42.670Z,3.05
2023-01-23T12:38:01.006Z,3.00
2023-01-23T12:40:45.078Z,3.04
2023-01-23T12:43:28.748Z,2.87
2023-01-23T12:46:07.534Z,3.05
2023-01-23T12:48:44.513Z,3.00
2023-01-23T12:51:23.618Z,3.06
2023-01-23T12:53:57.471Z,3.05
2023-01-23T12:56:34.028Z,2.94
2023-01-23T12:59:32.069Z,2.69
2023-01-23T13:02:23.417Z,2.59
2023-01-23T13:05:27.967Z,2.65
2023-01-23T13:08:38.338Z,2.69
2023-01-23T13:11:42.255Z,2.72
2023-01-23T13:15:03.587Z,2.71
2023-01-23T13:18:01.240Z,2.60
2023-01-23T13:20:56.938Z,2.59
2023-01-23T13:23:33.089Z,2.56
2023-01-23T13:26:12.044Z,2.60
2023-01-23T13:28:55.475Z,2.53
2023-01-23T13:31:34.382Z,2.46
2023-01-23T13:34:25.443Z,2.45
2023-01-23T13:36:54.209Z,2.41
2023-01-23T13:39:28.353Z,2.44
2023-01-23T13:42:16.352Z,2.46
2023-01-23T13:45:29.828Z,2.40
2023-01-23T14:25:38.724Z,2.43
2023-01-23T14:28:06.558Z,2.52
2023-01-23T14:30:33.488Z,2.60
2023-01-23T14:33:00.386Z,2.50
2023-01-23T14:35:27.167Z,2.59
2023-01-23T14:37:59.327Z,2.60
2023-01-23T14:40:29.779Z,2.61
2023-01-23T14:43:08.097Z,2.57
2023-01-23T14:45:36.464Z,2.50
2023-01-23T14:48:07.442Z,2.59
2023-01-23T14:50:35.742Z,2.57
2023-01-23T14:53:13.332Z,2.67
2023-01-23T14:55:44.920Z,2.80
2023-01-23T14:58:23.757Z,2.64
2023-01-23T15:00:52.202Z,2.62
2023-01-23T15:03:39.101Z,2.62
2023-01-23T15:06:15.600Z,2.55
2023-01-23T15:08:42.970Z,2.47
2023-01-23T15:11:12.986Z,2.37
2023-01-23T15:13:54.835Z,2.44
2023-01-23T15:16:31.633Z,2.44
2023-01-23T15:19:23.042Z,2.43
2023-01-23T15:21:50.684Z,2.42
2023-01-23T15:24:26.758Z,2.43
2023-01-23T15:27:03.468Z,2.50
2023-01-23T15:29:32.135Z,2.54
2023-01-23T15:32:00.436Z,2.53
2023-01-23T15:34:34.035Z,2.51
2023-01-23T15:37:12.036Z,2.57
2023-01-23T15:40:02.507Z,2.64
2023-01-23T15:42:34.944Z,2.64
2023-01-23T15:45:03.775Z,2.57
2023-01-23T15:47:31.831Z,2.57
2023-01-23T15:50:02.898Z,2.48
2023-01-23T15:52:52.304Z,2.57
2023-01-23T15:55:21.284Z,2.53
2023-01-23T15:57:48.828Z,2.55
2023-01-23T16:00:19.198Z,2.49
2023-01-23T16:02:56.131Z,2.46
2023-01-23T16:05:28.175Z,2.46
2023-01-23T16:07:57.274Z,2.37
2023-01-23T16:10:39.134Z,2.54
2023-01-23T16:13:07.856Z,2.44
2023-01-23T16:15:37.130Z,2.48
2023-01-23T16:18:07.229Z,2.48
2023-01-23T16:20:42.328Z,2.48
2023-01-23T16:23:17.254Z,2.54
2023-01-23T16:25:45.922Z,2.39
2023-01-23T16:28:14.124Z,2.47
2023-01-23T16:30:41.325Z,2.42
2023-01-23T16:33:08.772Z,2.45
2023-01-23T16:35:36.091Z,2.45
2023-01-23T16:38:03.267Z,2.34
2023-01-23T16:40:30.903Z,2.37
2023-01-23T16:42:59.800Z,2.40
2023-01-23T16:45:31.880Z,2.36
2023-01-23T16:47:59.450Z,2.31
2023-01-23T16:50:35.470Z,2.23
2023-01-23T16:53:23.984Z,2.40
2023-01-23T16:55:54.173Z,2.29
2023-01-23T16:58:29.009Z,2.30
2023-01-23T17:01:08.920Z,2.28
2023-01-23T17:03:40.792Z,2.22
2023-01-23T17:06:16.493Z,2.22
2023-01-23T17:08:43.596Z,2.18
2023-01-23T17:11:24.064Z,2.16
2023-01-23T17:14:06.933Z,2.12
2023-01-23T17:16:34.082Z,2.22
2023-01-23T17:19:12.873Z,2.22
2023-01-23T17:21:39.863Z,2.19
2023-01-23T17:24:15.058Z,2.11
2023-01-23T17:26:42.034Z,2.01
2023-01-23T17:29:09.373Z,2.08
2023-01-23T17:31:37.845Z,2.15
2023-01-23T17:34:06.617Z,2.04
2023-01-23T17:36:33.887Z,2.04
2023-01-23T17:39:01.126Z,2.05
2023-01-23T17:41:28.052Z,2.06
2023-01-23T17:43:54.936Z,1.98
2023-01-23T17:46:28.533Z,1.98
2023-01-23T17:48:56.481Z,1.95
2023-01-23T17:51:25.436Z,1.98
2023-01-23T17:53:53.163Z,1.97
2023-01-23T17:56:20.085Z,1.91
2023-01-23T17:58:46.992Z,1.77
2023-01-23T18:01:22.733Z,1.78
2023-01-23T18:03:51.063Z,1.78
2023-01-23T18:06:19.101Z,1.92
2023-01-23T18:08:46.435Z,1.78
2023-01-23T18:11:19.946Z,1.82
2023-01-23T18:13:58.903Z,1.95
2023-01-23T18:16:31.761Z,1.70
2023-01-23T18:19:20.699Z,1.81
2023-01-23T18:21:54.611Z,1.82
2023-01-23T18:24:31.116Z,1.82
2023-01-23T18:27:17.680Z,1.79
2023-01-23T18:30:15.987Z,1.79
2023-01-23T18:33:20.324Z,1.82
2023-01-23T18:36:20.452Z,1.82
2023-01-23T18:39:15.085Z,1.88
2023-01-23T18:42:17.208Z,1.84
2023-01-23T18:45:02.606Z,1.91
2023-01-23T18:47:29.759Z,1.93
2023-01-23T18:49:57.083Z,1.92
2023-01-23T18:52:30.311Z,1.87
2023-01-23T18:55:26.299Z,1.88
2023-01-23T18:58:30.847Z,1.98
2023-01-23T19:01:24.042Z,1.99
2023-01-23T19:03:53.426Z,1.90
2023-01-23T19:06:23.927Z,1.84
2023-01-23T19:08:54.202Z,1.89
2023-01-23T19:12:14.031Z,1.94
2023-01-23T19:14:57.834Z,1.90
2023-01-23T19:17:47.011Z,1.91
2023-01-23T19:20:37.770Z,1.99
2023-01-23T19:23:20.997Z,1.94
2023-01-23T19:25:48.372Z,1.85
2023-01-23T19:28:16.837Z,1.87
2023-01-23T19:30:44.791Z,1.90
2023-01-23T19:33:19.987Z,1.92
2023-01-23T19:35:48.292Z,1.90
2023-01-23T19:38:15.490Z,1.84
2023-01-23T19:40:43.949Z,1.92
2023-01-23T19:43:16.826Z,1.89
2023-01-23T19:45:44.791Z,1.92
2023-01-23T19:48:12.341Z,1.80
2023-01-23T19:50:40.229Z,1.85
2023-01-23T19:53:07.330Z,1.89
2023-01-23T19:55:38.183Z,1.84
2023-01-23T19:58:05.443Z,1.75
2023-01-23T20:00:35.903Z,1.79
2023-01-23T20:03:04.876Z,1.84
2023-01-23T20:05:32.148Z,1.77
2023-01-23T20:07:59.193Z,1.75
2023-01-23T20:10:26.072Z,1.81
2023-01-23T20:12:54.310Z,1.76
2023-01-23T20:15:25.231Z,1.79
2023-01-23T20:17:53.450Z,1.83
2023-01-23T20:20:22.068Z,1.86
2023-01-23T20:22:49.119Z,1.79
2023-01-23T20:25:17.489Z,1.83
2023-01-23T20:27:45.016Z,1.78
2023-01-23T20:30:18.030Z,1.77
2023-01-23T20:32:45.463Z,1.76
2023-01-23T20:35:12.766Z,1.73
2023-01-23T20:37:39.692Z,1.73
2023-01-23T20:40:11.578Z,1.78
2023-01-23T20:42:39.685Z,1.85
2023-01-23T20:45:07.795Z,1.79
2023-01-23T20:47:37.971Z,1.84
2023-01-23T20:50:05.399Z,1.81
2023-01-23T20:52:50.949Z,1.79
2023-01-23T20:55:17.921Z,1.83
2023-01-23T20:58:03.293Z,1.85
2023-01-23T21:00:31.260Z,1.94
2023-01-23T21:02:58.207Z,1.92
2023-01-23T21:05:25.167Z,1.93
2023-01-23T21:07:52.150Z,1.83
2023-01-23T21:10:19.204Z,1.93
2023-01-23T21:12:46.226Z,1.96
2023-01-23T21:15:13.311Z,1.94
2023-01-23T21:17:40.158Z,2.02
2023-01-23T21:20:08.248Z,1.99
2023-01-23T21:22:35.209Z,2.00
2023-01-23T21:25:02.282Z,1.96
2023-01-23T21:27:29.229Z,1.95
2023-01-23T21:29:56.305Z,1.90
2023-01-23T21:32:23.329Z,1.98
2023-01-23T21:34:51.486Z,1.96
2023-01-23T21:37:18.985Z,1.99
2023-01-23T21:39:46.011Z,2.06
2023-01-23T21:42:13.599Z,2.04
2023-01-23T21:44:40.506Z,2.03
2023-01-23T21:47:07.581Z,2.06
2023-01-23T21:49:34.665Z,2.01
2023-01-23T21:52:01.622Z,2.11
2023-01-23T21:54:28.562Z,2.01
2023-01-23T21:56:55.551Z,1.96
2023-01-23T21:59:22.409Z,2.02
2023-01-23T22:01:49.370Z,1.98
2023-01-23T22:04:21.995Z,2.02
2023-01-23T22:06:55.699Z,2.07
2023-01-23T22:09:25.349Z,1.96
2023-01-23T22:11:53.648Z,1.92
2023-01-23T22:14:20.739Z,2.11
2023-01-23T22:16:49.820Z,2.03
2023-01-23T22:19:22.611Z,2.03
2023-01-23T22:21:51.455Z,1.98
2023-01-23T22:24:18.541Z,2.09
2023-01-23T22:26:45.458Z,2.02
2023-01-23T22:29:13.770Z,1.97
2023-01-23T22:31:41.244Z,2.05
2023-01-23T22:34:08.744Z,2.00
2023-01-23T22:36:35.730Z,2.06
2023-01-23T22:39:02.794Z,2.04
2023-01-23T22:41:29.750Z,1.95
2023-01-23T22:43:59.312Z,2.01
2023-01-23T22:46:27.745Z,1.99
2023-01-23T22:48:54.832Z,1.97
2023-01-23T22:51:25.727Z,2.01
2023-01-23T22:53:54.537Z,1.90
2023-01-23T22:56:22.155Z,2.03
2023-01-23T22:58:51.964Z,1.96
2023-01-23T23:01:19.555Z,2.10
2023-01-23T23:03:46.875Z,2.00
2023-01-23T23:06:16.208Z,2.09
2023-01-23T23:08:47.102Z,2.05
2023-01-23T23:11:21.362Z,2.01
2023-01-23T23:13:49.607Z,2.01
2023-01-23T23:16:25.281Z,2.00
2023-01-23T23:18:54.843Z,2.00
2023-01-23T23:21:25.253Z,2.02
2023-01-23T23:23:56.642Z,1.98
2023-01-23T23:26:24.325Z,1.99
2023-01-23T23:28:51.190Z,2.00
2023-01-23T23:31:18.198Z,1.94
2023-01-23T23:33:45.381Z,2.01
2023-01-23T23:36:12.605Z,2.06
2023-01-23T23:38:39.476Z,2.06
2023-01-23T23:41:10.737Z,2.00
2023-01-23T23:43:37.689Z,2.08
2023-01-23T23:46:07.237Z,2.05
2023-01-23T23:48:36.336Z,2.07
2023-01-23T23:51:07.265Z,1.98
2023-01-23T23:53:35.762Z,1.99
2023-01-23T23:56:03.307Z,2.12
2023-01-23T23:58:30.422Z,2.03
